createdAt,value
2018-11-22T00:00:55.271Z,38.40
2018-11-22T00:01:55.227Z,37.30
2018-11-22T00:02:55.191Z,37.20
2018-11-22T00:03:55.128Z,37.90
2018-11-22T00:04:55.103Z,37.80
2018-11-22T00:05:55.057Z,36.50
2018-11-22T00:06:55.018Z,38.00
2018-11-22T00:07:54.951Z,38.70
2018-11-22T00:08:54.905Z,38.10
2018-11-22T00:09:54.866Z,37.80
2018-11-22T00:10:54.831Z,38.90
2018-11-22T00:11:54.773Z,37.80
2018-11-22T00:12:54.730Z,36.50
2018-11-22T00:13:54.696Z,36.20
2018-11-22T00:14:54.670Z,36.70
2018-11-22T00:15:54.603Z,37.10
2018-11-22T00:16:54.575Z,36.20
2018-11-22T00:17:54.518Z,37.50
2018-11-22T00:18:54.470Z,38.40
2018-11-22T00:19:54.439Z,38.00
2018-11-22T00:20:54.392Z,37.70
2018-11-22T00:21:54.367Z,37.20
2018-11-22T00:22:54.316Z,36.40
2018-11-22T00:23:54.249Z,36.60
2018-11-22T00:24:54.219Z,35.40
2018-11-22T00:25:54.155Z,35.90
2018-11-22T00:26:54.110Z,35.40
2018-11-22T00:27:54.078Z,34.10
2018-11-22T00:28:54.050Z,35.70
2018-11-22T00:29:53.995Z,34.50
2018-11-22T00:30:53.944Z,33.30
2018-11-22T00:31:53.902Z,35.80
2018-11-22T00:32:53.867Z,33.20
2018-11-22T00:33:53.824Z,34.10
2018-11-22T00:34:53.772Z,34.10
2018-11-22T00:35:53.735Z,34.50
2018-11-22T00:36:53.670Z,34.20
2018-11-22T00:37:53.646Z,33.90
2018-11-22T00:38:53.598Z,34.50
2018-11-22T00:39:53.559Z,33.30
2018-11-22T00:40:53.498Z,34.00
2018-11-22T00:41:53.454Z,34.50
2018-11-22T00:42:53.411Z,35.40
2018-11-22T00:43:53.375Z,35.30
2018-11-22T00:44:53.327Z,35.00
2018-11-22T00:45:53.291Z,36.40
2018-11-22T00:46:53.253Z,35.50
2018-11-22T00:47:53.202Z,34.90
2018-11-22T00:48:53.154Z,34.70
2018-11-22T00:49:53.109Z,34.30
2018-11-22T00:50:53.069Z,35.60
2018-11-22T00:51:53.018Z,34.90
2018-11-22T00:52:52.971Z,33.50
2018-11-22T00:53:52.927Z,34.60
2018-11-22T00:54:52.892Z,34.40
2018-11-22T00:55:52.840Z,33.90
2018-11-22T00:56:52.812Z,34.70
2018-11-22T00:57:52.757Z,34.70
2018-11-22T00:58:52.823Z,34.30
2018-11-22T00:59:52.673Z,34.20
2018-11-22T01:00:52.623Z,33.00
2018-11-22T01:01:52.578Z,34.40
2018-11-22T01:02:52.535Z,33.70
2018-11-22T01:03:52.535Z,34.20
2018-11-22T01:04:52.459Z,34.50
2018-11-22T01:05:52.403Z,33.60
2018-11-22T01:06:52.372Z,36.10
2018-11-22T01:07:52.335Z,34.80
2018-11-22T01:08:52.276Z,34.70
2018-11-22T01:09:52.231Z,33.80
2018-11-22T01:10:52.183Z,33.60
2018-11-22T01:11:52.151Z,34.70
2018-11-22T01:12:52.115Z,34.90
2018-11-22T01:13:52.043Z,35.40
2018-11-22T01:14:52.005Z,33.60
2018-11-22T01:15:51.960Z,34.10
2018-11-22T01:16:51.923Z,34.20
2018-11-22T01:17:51.918Z,35.10
2018-11-22T01:18:51.833Z,33.70
2018-11-22T01:19:51.781Z,34.60
2018-11-22T01:20:51.750Z,34.80
2018-11-22T01:21:51.696Z,34.40
2018-11-22T01:22:51.653Z,35.20
2018-11-22T01:23:51.618Z,34.40
2018-11-22T01:24:51.564Z,33.50
2018-11-22T01:25:51.518Z,34.20
2018-11-22T01:26:51.512Z,35.20
2018-11-22T01:27:51.445Z,34.10
2018-11-22T01:28:51.384Z,34.90
2018-11-22T01:29:51.353Z,35.00
2018-11-22T01:30:51.303Z,33.00
2018-11-22T01:31:51.265Z,34.10
2018-11-22T01:32:51.222Z,34.30
2018-11-22T01:33:51.191Z,33.50
2018-11-22T01:34:51.155Z,33.00
2018-11-22T01:35:51.088Z,32.90
2018-11-22T01:36:51.071Z,33.90
2018-11-22T01:37:51.003Z,33.70
2018-11-22T01:38:50.980Z,33.70
2018-11-22T01:39:50.941Z,33.90
2018-11-22T01:40:50.873Z,34.40
2018-11-22T01:41:50.819Z,34.30
2018-11-22T01:42:50.785Z,34.50
2018-11-22T01:43:50.747Z,35.30
2018-11-22T01:44:50.716Z,33.70
2018-11-22T01:45:50.660Z,33.40
2018-11-22T01:46:50.673Z,34.60
2018-11-22T01:47:50.595Z,34.60
2018-11-22T01:48:50.527Z,35.20
2018-11-22T01:49:50.473Z,35.00
2018-11-22T01:50:50.427Z,35.70
2018-11-22T01:51:50.391Z,35.30
2018-11-22T01:52:50.373Z,35.50
2018-11-22T01:53:50.292Z,35.00
2018-11-22T01:54:50.247Z,34.60
2018-11-22T01:55:50.215Z,35.10
2018-11-22T01:56:50.196Z,35.20
2018-11-22T01:57:50.135Z,35.70
2018-11-22T01:58:50.089Z,36.60
2018-11-22T01:59:50.046Z,34.50
2018-11-22T02:00:49.977Z,33.90
2018-11-22T02:01:49.947Z,34.70
2018-11-22T02:02:49.899Z,35.50
2018-11-22T02:03:49.850Z,35.60
2018-11-22T02:04:49.829Z,35.70
2018-11-22T02:05:49.768Z,35.50
2018-11-22T02:06:49.730Z,35.20
2018-11-22T02:07:49.704Z,34.80
2018-11-22T02:08:49.667Z,35.40
2018-11-22T02:09:49.591Z,35.30
2018-11-22T02:10:49.571Z,35.10
2018-11-22T02:11:49.516Z,34.60
2018-11-22T02:12:49.458Z,34.70
2018-11-22T02:13:49.437Z,34.90
2018-11-22T02:14:49.379Z,35.90
2018-11-22T02:15:49.332Z,36.20
2018-11-22T02:16:49.279Z,36.10
2018-11-22T02:17:49.235Z,33.70
2018-11-22T02:18:49.193Z,34.60
2018-11-22T02:19:49.159Z,35.30
2018-11-22T02:20:49.110Z,34.10
2018-11-22T02:21:49.075Z,35.70
2018-11-22T02:22:49.040Z,34.10
2018-11-22T02:23:48.985Z,36.10
2018-11-22T02:24:48.937Z,35.20
2018-11-22T02:25:48.900Z,35.30
2018-11-22T02:26:48.853Z,34.50
2018-11-22T02:27:48.792Z,34.80
2018-11-22T02:28:48.755Z,36.70
2018-11-22T02:29:48.729Z,35.10
2018-11-22T02:30:48.693Z,33.30
2018-11-22T02:31:48.635Z,36.00
2018-11-22T02:32:48.588Z,35.40
2018-11-22T02:33:48.569Z,35.30
2018-11-22T02:34:48.504Z,36.20
2018-11-22T02:35:48.454Z,35.50
2018-11-22T02:36:48.411Z,36.70
2018-11-22T02:37:48.361Z,35.20
2018-11-22T02:38:48.318Z,35.20
2018-11-22T02:39:48.272Z,34.80
2018-11-22T02:40:48.264Z,34.90
2018-11-22T02:41:48.185Z,35.20
2018-11-22T02:42:48.157Z,35.70
2018-11-22T02:43:48.102Z,35.10
2018-11-22T02:44:48.052Z,35.20
2018-11-22T02:45:48.025Z,35.00
2018-11-22T02:46:47.967Z,34.30
2018-11-22T02:47:47.935Z,36.80
2018-11-22T02:48:47.883Z,37.20
2018-11-22T02:49:47.837Z,37.00
2018-11-22T02:50:47.793Z,37.10
2018-11-22T02:51:47.742Z,37.70
2018-11-22T02:52:47.710Z,36.30
2018-11-22T02:53:47.659Z,36.30
2018-11-22T02:54:47.616Z,36.70
2018-11-22T02:55:47.589Z,37.80
2018-11-22T02:56:47.540Z,36.80
2018-11-22T02:57:47.486Z,37.70
2018-11-22T02:58:47.476Z,36.40
2018-11-22T02:59:47.399Z,39.00
2018-11-22T03:00:47.375Z,38.80
2018-11-22T03:01:47.320Z,38.10
2018-11-22T03:02:47.273Z,39.70
2018-11-22T03:03:47.244Z,38.20
2018-11-22T03:04:47.194Z,39.70
2018-11-22T03:05:47.157Z,38.50
2018-11-22T03:06:47.114Z,38.40
2018-11-22T03:07:47.046Z,40.30
2018-11-22T03:08:47.000Z,40.40
2018-11-22T03:09:46.970Z,40.00
2018-11-22T03:10:46.928Z,41.10
2018-11-22T03:11:46.869Z,40.60
2018-11-22T03:12:48.197Z,39.50
2018-11-22T03:13:46.810Z,40.00
2018-11-22T03:14:46.748Z,39.10
2018-11-22T03:15:46.692Z,42.20
2018-11-22T03:16:46.643Z,39.30
2018-11-22T03:17:46.612Z,39.50
2018-11-22T03:18:46.558Z,39.80
2018-11-22T03:19:46.528Z,41.80
2018-11-22T03:20:46.481Z,41.70
2018-11-22T03:21:46.425Z,41.10
2018-11-22T03:22:46.382Z,42.20
2018-11-22T03:23:46.356Z,43.80
2018-11-22T03:24:46.332Z,44.20
2018-11-22T03:25:46.251Z,42.80
2018-11-22T03:26:46.228Z,41.10
2018-11-22T03:27:46.165Z,44.10
2018-11-22T03:28:46.128Z,42.60
2018-11-22T03:29:46.084Z,42.90
2018-11-22T03:30:46.056Z,43.30
2018-11-22T03:31:46.017Z,41.50
2018-11-22T03:32:45.956Z,43.10
2018-11-22T03:33:45.926Z,43.40
2018-11-22T03:34:45.870Z,42.70
2018-11-22T03:35:45.806Z,43.70
2018-11-22T03:36:45.784Z,43.20
2018-11-22T03:37:45.731Z,44.20
2018-11-22T03:38:45.706Z,44.30
2018-11-22T03:39:45.653Z,46.40
2018-11-22T03:40:45.613Z,43.60
2018-11-22T03:41:45.549Z,45.60
2018-11-22T03:42:45.516Z,43.00
2018-11-22T03:43:45.474Z,44.60
2018-11-22T03:44:45.434Z,43.30
2018-11-22T03:45:45.389Z,42.50
2018-11-22T03:46:45.343Z,44.10
2018-11-22T03:47:45.286Z,45.80
2018-11-22T03:48:45.248Z,45.20
2018-11-22T03:49:50.334Z,44.70
2018-11-22T03:50:45.165Z,45.60
2018-11-22T03:51:45.122Z,44.60
2018-11-22T03:52:45.068Z,44.80
2018-11-22T03:53:45.037Z,45.70
2018-11-22T03:54:44.985Z,44.00
2018-11-22T03:55:44.937Z,46.50
2018-11-22T03:56:44.917Z,45.40
2018-11-22T03:57:44.862Z,47.10
2018-11-22T03:58:44.821Z,47.60
2018-11-22T03:59:44.791Z,45.90
2018-11-22T04:00:44.718Z,46.50
2018-11-22T04:01:44.681Z,46.70
2018-11-22T04:02:44.638Z,46.50
2018-11-22T04:03:44.601Z,46.00
2018-11-22T04:04:44.545Z,45.90
2018-11-22T04:05:44.529Z,46.20
2018-11-22T04:06:44.484Z,47.10
2018-11-22T04:07:44.433Z,48.80
2018-11-22T04:08:44.385Z,48.60
2018-11-22T04:09:44.338Z,46.90
2018-11-22T04:10:44.288Z,45.70
2018-11-22T04:11:44.254Z,48.50
2018-11-22T04:12:44.205Z,47.90
2018-11-22T04:13:44.151Z,49.40
2018-11-22T04:14:44.120Z,49.10
2018-11-22T04:15:44.079Z,52.90
2018-11-22T04:16:44.036Z,75.50
2018-11-22T04:17:44.001Z,80.20
2018-11-22T04:18:43.944Z,60.10
2018-11-22T04:19:43.902Z,61.00
2018-11-22T04:20:43.862Z,60.10
2018-11-22T04:21:43.814Z,60.40
2018-11-22T04:22:43.808Z,68.90
2018-11-22T04:23:43.716Z,65.50
2018-11-22T04:24:43.685Z,60.40
2018-11-22T04:25:43.654Z,60.60
2018-11-22T04:26:43.588Z,59.00
2018-11-22T04:27:43.536Z,58.00
2018-11-22T04:28:43.501Z,57.30
2018-11-22T04:29:43.451Z,49.70
2018-11-22T04:30:43.406Z,51.70
2018-11-22T04:31:43.370Z,49.90
2018-11-22T04:32:43.348Z,50.80
2018-11-22T04:33:43.273Z,49.90
2018-11-22T04:34:43.245Z,49.70
2018-11-22T04:35:43.185Z,49.30
2018-11-22T04:36:43.153Z,47.30
2018-11-22T04:37:43.136Z,50.40
2018-11-22T04:38:43.058Z,48.50
2018-11-22T04:39:43.051Z,48.10
2018-11-22T04:40:43.170Z,47.10
2018-11-22T04:41:42.931Z,47.30
2018-11-22T04:42:42.900Z,48.10
2018-11-22T04:43:42.869Z,47.20
2018-11-22T04:44:42.794Z,49.00
2018-11-22T04:45:42.772Z,47.60
2018-11-22T04:46:42.737Z,47.60
2018-11-22T04:47:42.672Z,48.60
2018-11-22T04:48:42.637Z,45.40
2018-11-22T04:49:42.582Z,46.80
2018-11-22T04:50:42.533Z,46.00
2018-11-22T04:51:42.535Z,46.90
2018-11-22T04:52:42.453Z,46.90
2018-11-22T04:53:42.420Z,45.90
2018-11-22T04:54:42.361Z,48.10
2018-11-22T04:55:42.310Z,48.50
2018-11-22T04:56:42.265Z,49.30
2018-11-22T04:57:42.228Z,47.90
2018-11-22T04:58:42.194Z,48.40
2018-11-22T04:59:42.175Z,47.40
2018-11-22T05:00:42.098Z,44.90
2018-11-22T05:01:42.082Z,45.00
2018-11-22T05:02:42.006Z,44.60
2018-11-22T05:03:41.976Z,45.20
2018-11-22T05:04:41.931Z,45.30
2018-11-22T05:05:41.923Z,47.30
2018-11-22T05:06:41.884Z,46.00
2018-11-22T05:07:41.794Z,46.30
2018-11-22T05:08:41.757Z,45.50
2018-11-22T05:09:41.716Z,45.00
2018-11-22T05:10:41.663Z,46.10
2018-11-22T05:11:41.607Z,45.10
2018-11-22T05:12:41.575Z,44.70
2018-11-22T05:13:41.533Z,44.30
2018-11-22T05:14:41.501Z,46.20
2018-11-22T05:15:41.453Z,44.30
2018-11-22T05:16:41.407Z,44.40
2018-11-22T05:17:41.349Z,43.20
2018-11-22T05:18:41.314Z,42.90
2018-11-22T05:19:41.292Z,43.40
2018-11-22T05:20:41.225Z,43.80
2018-11-22T05:21:41.191Z,44.00
2018-11-22T05:22:41.143Z,43.30
2018-11-22T05:23:41.123Z,44.00
2018-11-22T05:24:41.056Z,42.10
2018-11-22T05:25:41.014Z,43.00
2018-11-22T05:26:40.960Z,42.80
2018-11-22T05:27:40.928Z,42.90
2018-11-22T05:28:40.884Z,42.20
2018-11-22T05:29:40.838Z,44.60
2018-11-22T05:30:40.788Z,44.40
2018-11-22T05:31:40.745Z,43.30
2018-11-22T05:32:40.698Z,44.40
2018-11-22T05:33:40.652Z,43.50
2018-11-22T05:34:40.608Z,41.20
2018-11-22T05:35:40.609Z,43.20
2018-11-22T05:36:40.532Z,42.50
2018-11-22T05:37:40.497Z,41.60
2018-11-22T05:38:40.462Z,43.50
2018-11-22T05:39:40.403Z,43.10
2018-11-22T05:40:40.356Z,40.10
2018-11-22T05:41:43.857Z,43.00
2018-11-22T05:42:40.270Z,41.40
2018-11-22T05:43:40.228Z,40.20
2018-11-22T05:44:40.196Z,41.60
2018-11-22T05:45:40.138Z,43.60
2018-11-22T05:46:40.093Z,43.20
2018-11-22T05:47:40.072Z,43.40
2018-11-22T05:48:40.008Z,40.50
2018-11-22T05:49:39.962Z,41.50
2018-11-22T05:50:39.939Z,41.60
2018-11-22T05:51:39.900Z,43.40
2018-11-22T05:52:39.834Z,40.40
2018-11-22T05:53:39.788Z,43.50
2018-11-22T05:54:39.742Z,44.20
2018-11-22T05:55:39.709Z,42.20
2018-11-22T05:56:39.666Z,42.70
2018-11-22T05:57:39.616Z,43.20
2018-11-22T05:58:39.564Z,43.30
2018-11-22T05:59:39.534Z,42.40
2018-11-22T06:00:39.506Z,43.50
2018-11-22T06:01:39.441Z,43.30
2018-11-22T06:02:39.415Z,44.80
2018-11-22T06:03:39.377Z,46.30
2018-11-22T06:04:39.298Z,44.70
2018-11-22T06:05:39.291Z,45.00
2018-11-22T06:06:39.237Z,43.60
2018-11-22T06:07:39.186Z,44.60
2018-11-22T06:08:39.174Z,45.60
2018-11-22T06:09:39.103Z,44.40
2018-11-22T06:10:39.084Z,44.00
2018-11-22T06:11:39.006Z,45.40
2018-11-22T06:12:38.988Z,44.30
2018-11-22T06:13:38.955Z,44.90
2018-11-22T06:14:38.899Z,44.50
2018-11-22T06:15:38.896Z,45.60
2018-11-22T06:16:38.808Z,45.10
2018-11-22T06:17:38.753Z,48.20
2018-11-22T06:18:38.722Z,44.40
2018-11-22T06:19:38.661Z,45.70
2018-11-22T06:20:38.637Z,45.70
2018-11-22T06:21:38.591Z,46.70
2018-11-22T06:22:38.526Z,46.00
2018-11-22T06:23:38.483Z,47.70
2018-11-22T06:24:38.447Z,48.90
2018-11-22T06:25:38.407Z,45.80
2018-11-22T06:26:38.366Z,49.50
2018-11-22T06:27:38.328Z,49.40
2018-11-22T06:28:38.267Z,46.70
2018-11-22T06:29:38.241Z,46.00
2018-11-22T06:30:38.192Z,49.00
2018-11-22T06:31:38.135Z,54.30
2018-11-22T06:32:38.090Z,52.90
2018-11-22T06:33:38.060Z,57.60
2018-11-22T06:34:38.002Z,55.70
2018-11-22T06:35:37.970Z,55.40
2018-11-22T06:36:37.934Z,56.30
2018-11-22T06:37:37.904Z,57.50
2018-11-22T06:38:37.836Z,58.90
2018-11-22T06:39:37.800Z,58.50
2018-11-22T06:40:37.761Z,60.80
2018-11-22T06:41:37.704Z,59.60
2018-11-22T06:42:37.670Z,60.40
2018-11-22T06:43:37.630Z,62.50
2018-11-22T06:44:37.573Z,60.40
2018-11-22T06:45:37.538Z,61.50
2018-11-22T06:46:37.527Z,62.00
2018-11-22T06:47:37.448Z,62.80
2018-11-22T06:48:37.427Z,60.40
2018-11-22T06:49:37.390Z,63.20
2018-11-22T06:50:37.317Z,63.40
2018-11-22T06:51:37.386Z,60.50
2018-11-22T06:52:37.237Z,65.70
2018-11-22T06:53:37.225Z,63.40
2018-11-22T06:54:37.139Z,59.80
2018-11-22T06:55:37.112Z,60.00
2018-11-22T06:56:37.081Z,58.80
2018-11-22T06:57:37.011Z,60.50
2018-11-22T06:58:36.976Z,59.90
2018-11-22T06:59:36.920Z,60.80
2018-11-22T07:00:36.874Z,61.90
2018-11-22T07:01:36.833Z,59.50
2018-11-22T07:02:36.812Z,58.90
2018-11-22T07:03:36.755Z,62.40
2018-11-22T07:04:36.720Z,61.00
2018-11-22T07:05:36.667Z,59.80
2018-11-22T07:06:36.621Z,59.90
2018-11-22T07:07:36.577Z,58.10
2018-11-22T07:08:36.534Z,59.70
2018-11-22T07:09:36.509Z,58.80
2018-11-22T07:10:36.486Z,61.70
2018-11-22T07:11:36.399Z,60.80
2018-11-22T07:12:36.359Z,59.30
2018-11-22T07:13:36.307Z,62.80
2018-11-22T07:14:36.301Z,59.70
2018-11-22T07:15:36.220Z,58.20
2018-11-22T07:16:36.171Z,58.20
2018-11-22T07:17:36.137Z,60.00
2018-11-22T07:18:36.110Z,63.10
2018-11-22T07:19:36.042Z,60.80
2018-11-22T07:20:36.141Z,58.70
2018-11-22T07:21:35.961Z,58.80
2018-11-22T07:22:35.952Z,59.50
2018-11-22T07:23:35.891Z,58.00
2018-11-22T07:24:35.826Z,60.00
2018-11-22T07:25:35.835Z,61.30
2018-11-22T07:26:35.749Z,62.50
2018-11-22T07:27:38.285Z,62.10
2018-11-22T07:28:35.670Z,62.80
2018-11-22T07:29:35.634Z,62.00
2018-11-22T07:30:42.178Z,63.80
2018-11-22T07:31:35.547Z,59.60
2018-11-22T07:32:35.553Z,61.40
2018-11-22T07:33:38.276Z,61.70
2018-11-22T07:34:35.414Z,63.60
2018-11-22T07:35:35.356Z,63.40
2018-11-22T07:36:35.306Z,60.70
2018-11-22T07:37:35.284Z,61.70
2018-11-22T07:38:35.240Z,64.00
2018-11-22T07:39:35.195Z,64.60
2018-11-22T07:40:35.151Z,61.70
2018-11-22T07:41:35.099Z,63.70
2018-11-22T07:42:35.092Z,63.30
2018-11-22T07:43:35.018Z,65.00
2018-11-22T07:44:35.002Z,63.20
2018-11-22T07:45:34.925Z,63.80
2018-11-22T07:46:34.895Z,65.40
2018-11-22T07:47:34.833Z,65.80
2018-11-22T07:48:34.789Z,65.60
2018-11-22T07:49:34.824Z,65.70
2018-11-22T07:50:34.716Z,64.10
2018-11-22T07:51:34.665Z,65.40
2018-11-22T07:52:34.615Z,67.20
2018-11-22T07:53:34.584Z,64.60
2018-11-22T07:54:34.526Z,64.30
2018-11-22T07:55:34.492Z,64.20
2018-11-22T07:56:34.441Z,64.40
2018-11-22T07:57:34.401Z,66.80
2018-11-22T07:58:34.395Z,62.00
2018-11-22T07:59:34.320Z,62.70
2018-11-22T08:00:34.278Z,63.50
2018-11-22T08:01:34.223Z,68.50
2018-11-22T08:02:34.181Z,67.50
2018-11-22T08:03:34.141Z,67.60
2018-11-22T08:04:34.108Z,67.40
2018-11-22T08:05:34.045Z,65.70
2018-11-22T08:06:34.003Z,65.00
2018-11-22T08:07:33.970Z,66.70
2018-11-22T08:08:33.918Z,62.50
2018-11-22T08:09:33.881Z,63.30
2018-11-22T08:10:33.827Z,64.40
2018-11-22T08:11:33.836Z,64.80
2018-11-22T08:12:33.794Z,63.30
2018-11-22T08:13:33.706Z,62.20
2018-11-22T08:14:33.652Z,64.70
2018-11-22T08:15:33.628Z,63.70
2018-11-22T08:16:33.606Z,62.70
2018-11-22T08:17:33.532Z,64.60
2018-11-22T08:18:33.500Z,64.80
2018-11-22T08:19:33.446Z,62.50
2018-11-22T08:20:33.399Z,61.80
2018-11-22T08:21:38.236Z,63.00
2018-11-22T08:22:33.325Z,64.20
2018-11-22T08:23:33.268Z,64.30
2018-11-22T08:24:33.222Z,63.50
2018-11-22T08:25:33.195Z,63.70
2018-11-22T08:26:33.141Z,63.50
2018-11-22T08:27:33.110Z,65.40
2018-11-22T08:28:33.057Z,74.20
2018-11-22T08:29:33.063Z,69.00
2018-11-22T08:30:32.975Z,71.30
2018-11-22T08:31:32.925Z,67.60
2018-11-22T08:32:32.900Z,65.20
2018-11-22T08:33:32.857Z,66.70
2018-11-22T08:34:32.834Z,64.80
2018-11-22T08:35:32.765Z,67.00
2018-11-22T08:36:32.712Z,66.50
2018-11-22T08:37:32.680Z,67.10
2018-11-22T08:38:32.622Z,67.60
2018-11-22T08:39:32.576Z,69.00
2018-11-22T08:40:32.543Z,69.00
2018-11-22T08:41:32.492Z,65.80
2018-11-22T08:42:32.458Z,71.20
2018-11-22T08:43:32.423Z,67.90
2018-11-22T08:44:32.360Z,64.60
2018-11-22T08:45:32.337Z,70.40
2018-11-22T08:46:32.269Z,68.40
2018-11-22T08:47:32.226Z,82.10
2018-11-22T08:48:32.189Z,77.30
2018-11-22T08:49:32.165Z,74.50
2018-11-22T08:50:32.102Z,69.20
2018-11-22T08:51:32.071Z,66.60
2018-11-22T08:52:32.027Z,65.80
2018-11-22T08:53:37.085Z,63.20
2018-11-22T08:54:31.927Z,61.70
2018-11-22T08:55:31.914Z,64.60
2018-11-22T08:56:31.850Z,65.10
2018-11-22T08:57:31.810Z,62.30
2018-11-22T08:58:31.779Z,63.80
2018-11-22T08:59:31.726Z,62.70
2018-11-22T09:00:31.714Z,61.90
2018-11-22T09:01:31.628Z,60.30
2018-11-22T09:02:31.595Z,63.70
2018-11-22T09:03:32.624Z,63.70
2018-11-22T09:04:52.564Z,62.60
2018-11-22T09:05:31.477Z,61.80
2018-11-22T09:06:31.467Z,60.80
2018-11-22T09:07:31.367Z,62.10
2018-11-22T09:08:31.333Z,62.70
2018-11-22T09:09:31.296Z,64.20
2018-11-22T09:10:31.247Z,61.90
2018-11-22T09:11:31.237Z,62.00
2018-11-22T09:12:31.168Z,59.70
2018-11-22T09:13:31.125Z,60.70
2018-11-22T09:14:31.073Z,62.50
2018-11-22T09:15:31.392Z,64.70
2018-11-22T09:16:30.981Z,60.00
2018-11-22T09:17:30.938Z,60.30
2018-11-22T09:18:30.905Z,61.70
2018-11-22T09:19:30.849Z,63.00
2018-11-22T09:20:30.815Z,61.40
2018-11-22T09:21:30.787Z,62.40
2018-11-22T09:22:30.732Z,59.10
2018-11-22T09:23:30.713Z,61.30
2018-11-22T09:24:30.660Z,63.00
2018-11-22T09:25:30.611Z,60.40
2018-11-22T09:26:30.573Z,61.60
2018-11-22T09:27:30.536Z,60.30
2018-11-22T09:28:30.475Z,61.10
2018-11-22T09:29:30.435Z,60.10
2018-11-22T09:30:30.396Z,60.00
2018-11-22T09:31:30.381Z,59.00
2018-11-22T09:32:30.323Z,59.60
2018-11-22T09:33:30.250Z,60.20
2018-11-22T09:34:30.223Z,61.10
2018-11-22T09:35:30.161Z,59.30
2018-11-22T09:36:30.176Z,62.50
2018-11-22T09:37:30.085Z,62.00
2018-11-22T09:38:30.047Z,60.50
2018-11-22T09:39:29.992Z,63.60
2018-11-22T09:40:29.977Z,60.60
2018-11-22T09:41:29.927Z,60.80
2018-11-22T09:42:29.871Z,61.40
2018-11-22T09:43:29.832Z,61.10
2018-11-22T09:44:29.851Z,59.70
2018-11-22T09:45:29.761Z,58.00
2018-11-22T09:46:29.713Z,59.80
2018-11-22T09:47:29.665Z,59.80
2018-11-22T09:48:29.625Z,62.00
2018-11-22T09:49:29.597Z,60.90
2018-11-22T09:50:29.540Z,61.20
2018-11-22T09:51:29.497Z,60.80
2018-11-22T09:52:29.449Z,60.30
2018-11-22T09:53:29.425Z,61.80
2018-11-22T09:54:29.367Z,61.30
2018-11-22T09:55:29.331Z,61.90
2018-11-22T09:56:29.289Z,61.20
2018-11-22T09:57:29.256Z,66.00
2018-11-22T09:58:29.227Z,64.30
2018-11-22T09:59:29.151Z,62.80
2018-11-22T10:00:29.118Z,60.60
2018-11-22T10:01:29.081Z,92.90
2018-11-22T10:02:29.058Z,77.60
2018-11-22T10:03:29.002Z,72.90
2018-11-22T10:04:28.952Z,69.70
2018-11-22T10:05:29.008Z,63.10
2018-11-22T10:06:28.846Z,62.60
2018-11-22T10:07:28.837Z,60.20
2018-11-22T10:08:28.822Z,61.00
2018-11-22T10:09:28.730Z,61.10
2018-11-22T10:10:28.692Z,61.00
2018-11-22T10:11:28.639Z,59.00
2018-11-22T10:12:28.681Z,62.10
2018-11-22T10:13:28.569Z,60.70
2018-11-22T10:14:28.528Z,62.30
2018-11-22T10:15:28.472Z,60.70
2018-11-22T10:16:28.430Z,61.50
2018-11-22T10:17:28.407Z,62.30
2018-11-22T10:18:28.365Z,60.80
2018-11-22T10:19:28.321Z,62.60
2018-11-22T10:20:28.262Z,61.70
2018-11-22T10:21:28.224Z,62.30
2018-11-22T10:22:28.223Z,60.30
2018-11-22T10:23:28.160Z,60.20
2018-11-22T10:24:28.258Z,58.50
2018-11-22T10:25:28.080Z,59.20
2018-11-22T10:26:28.019Z,58.20
2018-11-22T10:27:28.021Z,57.30
2018-11-22T10:28:27.932Z,57.90
2018-11-22T10:29:27.973Z,58.20
2018-11-22T10:30:27.901Z,57.70
2018-11-22T10:31:27.829Z,59.00
2018-11-22T10:32:27.798Z,58.80
2018-11-22T10:33:27.738Z,60.20
2018-11-22T10:34:27.688Z,60.70
2018-11-22T10:35:27.728Z,59.60
2018-11-22T10:36:27.593Z,61.30
2018-11-22T10:37:27.588Z,60.90
2018-11-22T10:38:27.584Z,60.70
2018-11-22T10:39:27.481Z,61.60
2018-11-22T10:40:27.438Z,61.60
2018-11-22T10:41:27.399Z,61.50
2018-11-22T10:42:27.401Z,61.70
2018-11-22T10:43:27.316Z,61.50
2018-11-22T10:44:27.276Z,59.10
2018-11-22T10:45:27.215Z,61.80
2018-11-22T10:46:27.200Z,61.30
2018-11-22T10:47:27.159Z,60.10
2018-11-22T10:48:27.101Z,59.70
2018-11-22T10:49:27.038Z,59.40
2018-11-22T10:50:27.016Z,59.30
2018-11-22T10:51:26.973Z,59.40
2018-11-22T10:52:26.919Z,57.90
2018-11-22T10:53:26.889Z,58.70
2018-11-22T10:54:26.849Z,57.60
2018-11-22T10:55:26.814Z,59.00
2018-11-22T10:56:26.755Z,58.00
2018-11-22T10:57:26.747Z,57.50
2018-11-22T10:58:26.684Z,59.60
2018-11-22T10:59:26.668Z,59.50
2018-11-22T11:00:26.591Z,59.90
2018-11-22T11:01:26.582Z,59.40
2018-11-22T11:02:26.536Z,60.60
2018-11-22T11:03:26.476Z,68.80
2018-11-22T11:04:26.429Z,61.60
2018-11-22T11:05:26.393Z,59.80
2018-11-22T11:06:26.360Z,59.80
2018-11-22T11:07:27.214Z,61.70
2018-11-22T11:08:26.292Z,61.80
2018-11-22T11:09:26.221Z,61.00
2018-11-22T11:10:26.183Z,62.10
2018-11-22T11:11:26.133Z,61.80
2018-11-22T11:12:26.081Z,62.90
2018-11-22T11:13:26.047Z,62.20
2018-11-22T11:14:26.019Z,64.00
2018-11-22T11:15:25.974Z,63.30
2018-11-22T11:16:25.936Z,64.70
2018-11-22T11:17:25.882Z,64.30
2018-11-22T11:18:25.829Z,63.90
2018-11-22T11:19:25.808Z,67.00
2018-11-22T11:20:25.769Z,64.10
2018-11-22T11:21:25.705Z,64.80
2018-11-22T11:22:25.670Z,64.40
2018-11-22T11:23:25.624Z,63.00
2018-11-22T11:24:26.240Z,65.80
2018-11-22T11:25:25.547Z,66.40
2018-11-22T11:26:25.506Z,65.00
2018-11-22T11:27:25.453Z,65.10
2018-11-22T11:28:25.452Z,66.20
2018-11-22T11:29:25.388Z,65.50
2018-11-22T11:30:25.334Z,65.50
2018-11-22T11:31:25.291Z,66.00
2018-11-22T11:32:25.255Z,65.60
2018-11-22T11:33:25.215Z,67.50
2018-11-22T11:34:25.166Z,72.70
2018-11-22T11:35:25.118Z,76.10
2018-11-22T11:36:25.126Z,69.20
2018-11-22T11:37:25.027Z,71.20
2018-11-22T11:38:24.999Z,73.20
2018-11-22T11:39:24.947Z,68.50
2018-11-22T11:40:24.912Z,69.10
2018-11-22T11:41:24.877Z,67.20
2018-11-22T11:42:24.823Z,65.10
2018-11-22T11:43:24.778Z,79.70
2018-11-22T11:44:24.736Z,72.80
2018-11-22T11:45:24.698Z,75.80
2018-11-22T11:46:24.642Z,68.90
2018-11-22T11:47:24.625Z,66.70
2018-11-22T11:48:24.567Z,65.70
2018-11-22T11:49:24.553Z,65.70
2018-11-22T11:50:24.475Z,65.30
2018-11-22T11:51:24.487Z,65.40
2018-11-22T11:52:24.395Z,62.70
2018-11-22T11:53:32.831Z,64.30
2018-11-22T11:54:24.308Z,65.90
2018-11-22T11:55:24.276Z,66.20
2018-11-22T11:56:24.237Z,58.00
2018-11-22T11:57:24.181Z,62.30
2018-11-22T11:58:24.157Z,61.40
2018-11-22T11:59:24.115Z,59.90
2018-11-22T12:00:24.071Z,58.00
2018-11-22T12:01:24.020Z,59.40
2018-11-22T12:02:23.968Z,58.60
2018-11-22T12:03:24.013Z,59.00
2018-11-22T12:04:23.888Z,60.00
2018-11-22T12:05:23.879Z,60.80
2018-11-22T12:06:23.810Z,62.60
2018-11-22T12:07:23.773Z,61.90
2018-11-22T12:08:23.726Z,61.00
2018-11-22T12:09:23.674Z,58.90
2018-11-22T12:10:23.662Z,62.20
2018-11-22T12:11:23.599Z,62.30
2018-11-22T12:12:23.579Z,62.30
2018-11-22T12:13:23.516Z,62.40
2018-11-22T12:14:23.466Z,61.50
2018-11-22T12:15:23.423Z,61.60
2018-11-22T12:16:23.386Z,62.30
2018-11-22T12:17:23.333Z,62.90
2018-11-22T12:18:23.310Z,62.00
2018-11-22T12:19:23.263Z,61.80
2018-11-22T12:20:23.211Z,61.30
2018-11-22T12:21:23.178Z,62.80
2018-11-22T12:22:23.141Z,64.00
2018-11-22T12:23:23.105Z,62.90
2018-11-22T12:24:23.053Z,63.70
2018-11-22T12:25:23.003Z,63.50
2018-11-22T12:26:22.973Z,62.60
2018-11-22T12:27:22.919Z,62.30
2018-11-22T12:28:22.874Z,62.10
2018-11-22T12:29:22.847Z,61.20
2018-11-22T12:30:22.820Z,61.90
2018-11-22T12:31:22.743Z,63.20
2018-11-22T12:32:22.703Z,63.90
2018-11-22T12:33:22.669Z,61.80
2018-11-22T12:34:22.650Z,63.10
2018-11-22T12:35:22.588Z,61.40
2018-11-22T12:36:22.570Z,60.40
2018-11-22T12:37:22.561Z,59.60
2018-11-22T12:38:22.509Z,61.10
2018-11-22T12:39:22.411Z,58.70
2018-11-22T12:40:22.386Z,61.20
2018-11-22T12:41:22.331Z,60.90
2018-11-22T12:42:22.318Z,59.70
2018-11-22T12:43:22.267Z,61.30
2018-11-22T12:44:22.230Z,60.10
2018-11-22T12:45:22.170Z,58.40
2018-11-22T12:46:22.137Z,60.40
2018-11-22T12:47:22.095Z,59.70
2018-11-22T12:48:22.050Z,60.70
2018-11-22T12:49:22.017Z,59.90
2018-11-22T12:50:21.969Z,61.70
2018-11-22T12:51:21.942Z,60.40
2018-11-22T12:52:21.878Z,61.10